sensor_id;sensor_type;location;lat;lon;timestamp;P1;durP1;ratioP1;P2;durP2;ratioP2
12593;SDS011;6362;50.208;9.182;2022-08-19T00:00:08;20.83;;;16.33;;
12593;SDS011;6362;50.208;9.182;2022-08-19T00:02:35;25.80;;;16.55;;
12593;SDS011;6362;50.208;9.182;2022-08-19T00:05:01;21.33;;;16.58;;
12593;SDS011;6362;50.208;9.182;2022-08-19T00:07:28;21.77;;;16.00;;
12593;SDS011;6362;50.208;9.182;2022-08-19T00:09:53;22.75;;;17.00;;
12593;SDS011;6362;50.208;9.182;2022-08-19T00:12:19;22.88;;;17.15;;
12593;SDS011;6362;50.208;9.182;2022-08-19T00:14:45;22.02;;;16.88;;
12593;SDS011;6362;50.208;9.182;2022-08-19T00:17:11;21.95;;;16.20;;
12593;SDS011;6362;50.208;9.182;2022-08-19T00:19:36;24.67;;;16.45;;
12593;SDS011;6362;50.208;9.182;2022-08-19T00:22:03;21.92;;;16.50;;
12593;SDS011;6362;50.208;9.182;2022-08-19T00:24:30;19.45;;;15.10;;
12593;SDS011;6362;50.208;9.182;2022-08-19T00:26:56;18.20;;;14.25;;
12593;SDS011;6362;50.208;9.182;2022-08-19T00:29:23;18.73;;;14.73;;
12593;SDS011;6362;50.208;9.182;2022-08-19T00:31:50;18.60;;;15.10;;
12593;SDS011;6362;50.208;9.182;2022-08-19T00:34:19;21.75;;;15.43;;
12593;SDS011;6362;50.208;9.182;2022-08-19T00:36:46;21.48;;;16.25;;
12593;SDS011;6362;50.208;9.182;2022-08-19T00:39:13;20.15;;;15.43;;
12593;SDS011;6362;50.208;9.182;2022-08-19T00:41:40;22.92;;;16.55;;
12593;SDS011;6362;50.208;9.182;2022-08-19T00:46:39;20.85;;;14.80;;
12593;SDS011;6362;50.208;9.182;2022-08-19T00:49:15;21.50;;;15.60;;
12593;SDS011;6362;50.208;9.182;2022-08-19T00:51:46;20.58;;;15.90;;
12593;SDS011;6362;50.208;9.182;2022-08-19T00:54:15;23.55;;;17.67;;
12593;SDS011;6362;50.208;9.182;2022-08-19T00:56:42;24.17;;;18.13;;
12593;SDS011;6362;50.208;9.182;2022-08-19T00:59:08;22.88;;;17.40;;
12593;SDS011;6362;50.208;9.182;2022-08-19T01:01:35;20.63;;;15.23;;
12593;SDS011;6362;50.208;9.182;2022-08-19T01:04:02;26.05;;;16.25;;
12593;SDS011;6362;50.208;9.182;2022-08-19T01:06:28;20.15;;;15.13;;
12593;SDS011;6362;50.208;9.182;2022-08-19T01:08:56;20.15;;;15.32;;
12593;SDS011;6362;50.208;9.182;2022-08-19T01:11:21;20.63;;;15.23;;
12593;SDS011;6362;50.208;9.182;2022-08-19T01:13:48;19.50;;;15.25;;
12593;SDS011;6362;50.208;9.182;2022-08-19T01:16:16;23.40;;;18.05;;
12593;SDS011;6362;50.208;9.182;2022-08-19T01:18:44;24.77;;;17.27;;
12593;SDS011;6362;50.208;9.182;2022-08-19T01:24:03;25.25;;;18.90;;
12593;SDS011;6362;50.208;9.182;2022-08-19T01:26:29;26.13;;;19.67;;
12593;SDS011;6362;50.208;9.182;2022-08-19T01:28:56;30.17;;;20.02;;
12593;SDS011;6362;50.208;9.182;2022-08-19T01:31:25;26.55;;;18.88;;
12593;SDS011;6362;50.208;9.182;2022-08-19T01:33:52;28.63;;;20.05;;
12593;SDS011;6362;50.208;9.182;2022-08-19T01:36:40;23.67;;;18.05;;
12593;SDS011;6362;50.208;9.182;2022-08-19T01:39:12;23.85;;;18.00;;
12593;SDS011;6362;50.208;9.182;2022-08-19T01:41:40;23.10;;;17.05;;
12593;SDS011;6362;50.208;9.182;2022-08-19T01:44:06;21.80;;;17.25;;
12593;SDS011;6362;50.208;9.182;2022-08-19T01:46:33;22.27;;;16.60;;
12593;SDS011;6362;50.208;9.182;2022-08-19T01:48:59;22.98;;;17.38;;
12593;SDS011;6362;50.208;9.182;2022-08-19T01:51:25;24.17;;;17.02;;
12593;SDS011;6362;50.208;9.182;2022-08-19T01:53:51;26.30;;;19.42;;
12593;SDS011;6362;50.208;9.182;2022-08-19T01:56:17;21.77;;;17.27;;
12593;SDS011;6362;50.208;9.182;2022-08-19T01:58:45;23.45;;;17.52;;
12593;SDS011;6362;50.208;9.182;2022-08-19T02:01:16;23.55;;;18.60;;
12593;SDS011;6362;50.208;9.182;2022-08-19T02:03:42;22.48;;;17.27;;
12593;SDS011;6362;50.208;9.182;2022-08-19T02:06:07;25.05;;;18.70;;
12593;SDS011;6362;50.208;9.182;2022-08-19T02:08:34;26.58;;;19.20;;
12593;SDS011;6362;50.208;9.182;2022-08-19T02:11:01;28.15;;;19.85;;
12593;SDS011;6362;50.208;9.182;2022-08-19T02:13:27;28.13;;;19.55;;
12593;SDS011;6362;50.208;9.182;2022-08-19T02:15:53;27.70;;;20.75;;
12593;SDS011;6362;50.208;9.182;2022-08-19T02:18:19;28.02;;;20.98;;
12593;SDS011;6362;50.208;9.182;2022-08-19T02:20:44;28.30;;;20.27;;
12593;SDS011;6362;50.208;9.182;2022-08-19T02:23:12;28.05;;;20.10;;
12593;SDS011;6362;50.208;9.182;2022-08-19T02:25:39;26.20;;;20.25;;
12593;SDS011;6362;50.208;9.182;2022-08-19T02:28:05;32.00;;;20.95;;
12593;SDS011;6362;50.208;9.182;2022-08-19T02:30:31;31.58;;;22.05;;
12593;SDS011;6362;50.208;9.182;2022-08-19T02:32:56;28.15;;;21.08;;
12593;SDS011;6362;50.208;9.182;2022-08-19T02:35:22;32.33;;;21.45;;
12593;SDS011;6362;50.208;9.182;2022-08-19T02:37:48;26.67;;;19.67;;
12593;SDS011;6362;50.208;9.182;2022-08-19T02:40:32;28.00;;;20.05;;
12593;SDS011;6362;50.208;9.182;2022-08-19T02:42:59;28.55;;;19.48;;
12593;SDS011;6362;50.208;9.182;2022-08-19T02:45:32;23.80;;;18.30;;
12593;SDS011;6362;50.208;9.182;2022-08-19T02:47:59;26.50;;;19.35;;
12593;SDS011;6362;50.208;9.182;2022-08-19T02:50:24;23.60;;;17.60;;
12593;SDS011;6362;50.208;9.182;2022-08-19T02:52:50;22.83;;;17.13;;
12593;SDS011;6362;50.208;9.182;2022-08-19T02:55:16;20.85;;;16.48;;
12593;SDS011;6362;50.208;9.182;2022-08-19T02:57:41;25.40;;;18.55;;
12593;SDS011;6362;50.208;9.182;2022-08-19T03:00:07;26.52;;;19.15;;
12593;SDS011;6362;50.208;9.182;2022-08-19T03:02:34;28.60;;;21.48;;
12593;SDS011;6362;50.208;9.182;2022-08-19T03:04:59;28.23;;;19.27;;
12593;SDS011;6362;50.208;9.182;2022-08-19T03:07:26;26.75;;;19.70;;
12593;SDS011;6362;50.208;9.182;2022-08-19T03:09:52;22.40;;;16.70;;
12593;SDS011;6362;50.208;9.182;2022-08-19T03:12:17;24.05;;;17.45;;
12593;SDS011;6362;50.208;9.182;2022-08-19T03:14:43;20.80;;;16.33;;
12593;SDS011;6362;50.208;9.182;2022-08-19T03:17:08;26.25;;;19.23;;
12593;SDS011;6362;50.208;9.182;2022-08-19T03:19:34;23.73;;;18.52;;
12593;SDS011;6362;50.208;9.182;2022-08-19T03:22:00;24.27;;;18.48;;
12593;SDS011;6362;50.208;9.182;2022-08-19T03:24:25;28.15;;;19.00;;
12593;SDS011;6362;50.208;9.182;2022-08-19T03:26:52;24.83;;;17.85;;
12593;SDS011;6362;50.208;9.182;2022-08-19T03:29:22;23.55;;;16.75;;
12593;SDS011;6362;50.208;9.182;2022-08-19T03:31:49;23.00;;;18.17;;
12593;SDS011;6362;50.208;9.182;2022-08-19T03:34:20;25.48;;;18.58;;
12593;SDS011;6362;50.208;9.182;2022-08-19T03:36:55;24.45;;;17.55;;
12593;SDS011;6362;50.208;9.182;2022-08-19T03:39:24;29.73;;;20.30;;
12593;SDS011;6362;50.208;9.182;2022-08-19T03:41:51;24.80;;;19.05;;
12593;SDS011;6362;50.208;9.182;2022-08-19T03:44:19;25.67;;;19.10;;
12593;SDS011;6362;50.208;9.182;2022-08-19T03:46:48;30.20;;;21.38;;
12593;SDS011;6362;50.208;9.182;2022-08-19T03:49:17;23.92;;;17.35;;
12593;SDS011;6362;50.208;9.182;2022-08-19T03:51:44;19.70;;;15.82;;
12593;SDS011;6362;50.208;9.182;2022-08-19T03:54:12;25.58;;;18.35;;
12593;SDS011;6362;50.208;9.182;2022-08-19T03:56:40;24.65;;;17.73;;
12593;SDS011;6362;50.208;9.182;2022-08-19T03:59:08;23.50;;;17.67;;
12593;SDS011;6362;50.208;9.182;2022-08-19T04:01:36;22.15;;;17.00;;
12593;SDS011;6362;50.208;9.182;2022-08-19T04:04:01;22.52;;;16.55;;
12593;SDS011;6362;50.208;9.182;2022-08-19T04:06:28;23.85;;;17.67;;
12593;SDS011;6362;50.208;9.182;2022-08-19T04:08:56;22.95;;;17.40;;
12593;SDS011;6362;50.208;9.182;2022-08-19T04:11:30;20.45;;;16.67;;
12593;SDS011;6362;50.208;9.182;2022-08-19T04:13:58;22.98;;;15.98;;
12593;SDS011;6362;50.208;9.182;2022-08-19T04:16:25;21.65;;;16.42;;
12593;SDS011;6362;50.208;9.182;2022-08-19T04:18:54;23.92;;;18.58;;
12593;SDS011;6362;50.208;9.182;2022-08-19T04:21:22;21.83;;;16.65;;
12593;SDS011;6362;50.208;9.182;2022-08-19T04:23:50;26.73;;;19.88;;
12593;SDS011;6362;50.208;9.182;2022-08-19T04:26:19;28.83;;;20.35;;
12593;SDS011;6362;50.208;9.182;2022-08-19T04:28:47;26.08;;;19.17;;
12593;SDS011;6362;50.208;9.182;2022-08-19T04:31:18;23.73;;;17.48;;
12593;SDS011;6362;50.208;9.182;2022-08-19T04:33:45;23.15;;;17.42;;
12593;SDS011;6362;50.208;9.182;2022-08-19T04:36:22;25.13;;;17.77;;
12593;SDS011;6362;50.208;9.182;2022-08-19T04:38:50;24.33;;;18.15;;
12593;SDS011;6362;50.208;9.182;2022-08-19T04:41:19;23.65;;;17.55;;
12593;SDS011;6362;50.208;9.182;2022-08-19T04:44:04;24.25;;;17.42;;
12593;SDS011;6362;50.208;9.182;2022-08-19T04:46:30;25.40;;;17.95;;
12593;SDS011;6362;50.208;9.182;2022-08-19T04:48:57;25.65;;;17.92;;
12593;SDS011;6362;50.208;9.182;2022-08-19T04:51:24;23.48;;;17.73;;
12593;SDS011;6362;50.208;9.182;2022-08-19T04:53:50;23.23;;;17.38;;
12593;SDS011;6362;50.208;9.182;2022-08-19T04:56:16;20.77;;;15.98;;
12593;SDS011;6362;50.208;9.182;2022-08-19T04:58:44;26.10;;;17.25;;
12593;SDS011;6362;50.208;9.182;2022-08-19T05:01:28;20.90;;;15.90;;
12593;SDS011;6362;50.208;9.182;2022-08-19T05:03:55;20.95;;;15.73;;
12593;SDS011;6362;50.208;9.182;2022-08-19T05:06:22;21.40;;;16.10;;
12593;SDS011;6362;50.208;9.182;2022-08-19T05:08:48;24.05;;;17.10;;
12593;SDS011;6362;50.208;9.182;2022-08-19T05:11:15;21.13;;;16.00;;
12593;SDS011;6362;50.208;9.182;2022-08-19T05:13:43;27.98;;;21.00;;
12593;SDS011;6362;50.208;9.182;2022-08-19T05:16:10;25.85;;;18.48;;
12593;SDS011;6362;50.208;9.182;2022-08-19T05:18:38;28.95;;;20.73;;
12593;SDS011;6362;50.208;9.182;2022-08-19T05:21:23;27.58;;;19.63;;
12593;SDS011;6362;50.208;9.182;2022-08-19T05:24:07;27.42;;;19.95;;
12593;SDS011;6362;50.208;9.182;2022-08-19T05:26:34;28.92;;;20.00;;
12593;SDS011;6362;50.208;9.182;2022-08-19T05:29:04;29.13;;;21.42;;
12593;SDS011;6362;50.208;9.182;2022-08-19T05:31:30;26.65;;;20.13;;
12593;SDS011;6362;50.208;9.182;2022-08-19T05:33:56;26.90;;;18.98;;
12593;SDS011;6362;50.208;9.182;2022-08-19T05:36:24;26.98;;;19.98;;
12593;SDS011;6362;50.208;9.182;2022-08-19T05:38:50;26.60;;;18.85;;
12593;SDS011;6362;50.208;9.182;2022-08-19T05:41:17;28.77;;;20.23;;
12593;SDS011;6362;50.208;9.182;2022-08-19T05:43:43;28.67;;;20.63;;
12593;SDS011;6362;50.208;9.182;2022-08-19T05:46:08;27.48;;;20.73;;
12593;SDS011;6362;50.208;9.182;2022-08-19T05:48:43;26.70;;;18.60;;
12593;SDS011;6362;50.208;9.182;2022-08-19T05:51:08;29.45;;;20.65;;
12593;SDS011;6362;50.208;9.182;2022-08-19T05:53:34;30.08;;;20.90;;
12593;SDS011;6362;50.208;9.182;2022-08-19T05:56:07;23.63;;;17.73;;
12593;SDS011;6362;50.208;9.182;2022-08-19T05:58:35;25.17;;;18.45;;
12593;SDS011;6362;50.208;9.182;2022-08-19T06:01:02;28.17;;;20.25;;
12593;SDS011;6362;50.208;9.182;2022-08-19T06:03:32;29.30;;;21.05;;
12593;SDS011;6362;50.208;9.182;2022-08-19T06:05:58;27.63;;;21.00;;
12593;SDS011;6362;50.208;9.182;2022-08-19T06:08:25;24.75;;;18.83;;
12593;SDS011;6362;50.208;9.182;2022-08-19T06:10:52;28.70;;;19.55;;
12593;SDS011;6362;50.208;9.182;2022-08-19T06:13:17;28.40;;;20.33;;
12593;SDS011;6362;50.208;9.182;2022-08-19T06:15:44;25.58;;;19.27;;
12593;SDS011;6362;50.208;9.182;2022-08-19T06:18:11;27.20;;;19.70;;
12593;SDS011;6362;50.208;9.182;2022-08-19T06:20:37;25.38;;;18.65;;
12593;SDS011;6362;50.208;9.182;2022-08-19T06:23:02;26.05;;;18.08;;
12593;SDS011;6362;50.208;9.182;2022-08-19T06:25:28;25.02;;;18.77;;
12593;SDS011;6362;50.208;9.182;2022-08-19T06:27:54;25.25;;;18.20;;
12593;SDS011;6362;50.208;9.182;2022-08-19T06:30:19;27.65;;;18.73;;
12593;SDS011;6362;50.208;9.182;2022-08-19T06:32:45;23.40;;;17.48;;
12593;SDS011;6362;50.208;9.182;2022-08-19T06:35:10;23.40;;;17.33;;
12593;SDS011;6362;50.208;9.182;2022-08-19T06:37:36;24.17;;;15.95;;
12593;SDS011;6362;50.208;9.182;2022-08-19T06:40:02;19.95;;;15.60;;
12593;SDS011;6362;50.208;9.182;2022-08-19T06:42:28;24.08;;;16.90;;
12593;SDS011;6362;50.208;9.182;2022-08-19T06:44:54;23.75;;;16.45;;
12593;SDS011;6362;50.208;9.182;2022-08-19T06:47:20;25.15;;;16.98;;
12593;SDS011;6362;50.208;9.182;2022-08-19T06:49:46;19.92;;;16.05;;
12593;SDS011;6362;50.208;9.182;2022-08-19T06:52:12;21.17;;;16.02;;
12593;SDS011;6362;50.208;9.182;2022-08-19T06:54:39;21.23;;;15.50;;
12593;SDS011;6362;50.208;9.182;2022-08-19T06:57:07;21.17;;;15.73;;
12593;SDS011;6362;50.208;9.182;2022-08-19T06:59:38;18.58;;;14.13;;
12593;SDS011;6362;50.208;9.182;2022-08-19T07:02:04;20.08;;;14.82;;
12593;SDS011;6362;50.208;9.182;2022-08-19T07:04:31;18.17;;;14.52;;
12593;SDS011;6362;50.208;9.182;2022-08-19T07:07:05;21.02;;;15.80;;
12593;SDS011;6362;50.208;9.182;2022-08-19T07:09:37;19.30;;;14.18;;
12593;SDS011;6362;50.208;9.182;2022-08-19T07:12:06;19.02;;;14.48;;
12593;SDS011;6362;50.208;9.182;2022-08-19T07:14:35;22.00;;;15.05;;
12593;SDS011;6362;50.208;9.182;2022-08-19T07:17:02;22.90;;;14.82;;
12593;SDS011;6362;50.208;9.182;2022-08-19T07:19:29;18.90;;;14.38;;
12593;SDS011;6362;50.208;9.182;2022-08-19T07:21:56;20.00;;;14.60;;
12593;SDS011;6362;50.208;9.182;2022-08-19T07:24:22;19.30;;;14.85;;
12593;SDS011;6362;50.208;9.182;2022-08-19T07:26:50;24.10;;;16.27;;
12593;SDS011;6362;50.208;9.182;2022-08-19T07:29:17;18.38;;;13.85;;
12593;SDS011;6362;50.208;9.182;2022-08-19T07:31:43;19.33;;;14.35;;
12593;SDS011;6362;50.208;9.182;2022-08-19T07:34:10;20.83;;;14.98;;
12593;SDS011;6362;50.208;9.182;2022-08-19T07:36:38;20.88;;;15.32;;
12593;SDS011;6362;50.208;9.182;2022-08-19T07:39:07;20.95;;;15.45;;
12593;SDS011;6362;50.208;9.182;2022-08-19T07:41:37;20.90;;;15.45;;
12593;SDS011;6362;50.208;9.182;2022-08-19T07:44:03;18.60;;;14.00;;
12593;SDS011;6362;50.208;9.182;2022-08-19T07:46:31;21.13;;;15.20;;
12593;SDS011;6362;50.208;9.182;2022-08-19T07:48:57;22.40;;;15.90;;
12593;SDS011;6362;50.208;9.182;2022-08-19T07:51:23;18.08;;;13.27;;
12593;SDS011;6362;50.208;9.182;2022-08-19T07:53:49;18.67;;;12.70;;
12593;SDS011;6362;50.208;9.182;2022-08-19T07:56:15;19.05;;;12.98;;
12593;SDS011;6362;50.208;9.182;2022-08-19T07:58:43;15.80;;;12.07;;
12593;SDS011;6362;50.208;9.182;2022-08-19T08:01:12;17.58;;;12.57;;
12593;SDS011;6362;50.208;9.182;2022-08-19T08:03:49;15.43;;;11.52;;
12593;SDS011;6362;50.208;9.182;2022-08-19T08:06:34;15.25;;;11.63;;
12593;SDS011;6362;50.208;9.182;2022-08-19T08:09:20;18.35;;;13.00;;
12593;SDS011;6362;50.208;9.182;2022-08-19T08:11:50;17.73;;;11.38;;
12593;SDS011;6362;50.208;9.182;2022-08-19T08:14:20;17.75;;;11.95;;
12593;SDS011;6362;50.208;9.182;2022-08-19T08:16:48;17.52;;;11.48;;
12593;SDS011;6362;50.208;9.182;2022-08-19T08:19:16;14.07;;;11.20;;
12593;SDS011;6362;50.208;9.182;2022-08-19T08:21:42;13.73;;;10.45;;
12593;SDS011;6362;50.208;9.182;2022-08-19T08:24:08;17.88;;;10.82;;
12593;SDS011;6362;50.208;9.182;2022-08-19T08:26:33;13.27;;;10.40;;
12593;SDS011;6362;50.208;9.182;2022-08-19T08:28:59;12.27;;;9.15;;
12593;SDS011;6362;50.208;9.182;2022-08-19T08:31:24;15.05;;;9.30;;
12593;SDS011;6362;50.208;9.182;2022-08-19T08:33:50;12.25;;;9.20;;
12593;SDS011;6362;50.208;9.182;2022-08-19T08:36:15;11.30;;;8.60;;
12593;SDS011;6362;50.208;9.182;2022-08-19T08:38:42;14.45;;;9.70;;
12593;SDS011;6362;50.208;9.182;2022-08-19T08:44:21;12.15;;;8.38;;
12593;SDS011;6362;50.208;9.182;2022-08-19T08:47:01;10.48;;;8.35;;
12593;SDS011;6362;50.208;9.182;2022-08-19T08:49:44;12.13;;;8.40;;
12593;SDS011;6362;50.208;9.182;2022-08-19T08:52:30;11.80;;;8.27;;
12593;SDS011;6362;50.208;9.182;2022-08-19T08:55:00;11.40;;;8.00;;
12593;SDS011;6362;50.208;9.182;2022-08-19T08:57:35;12.33;;;8.23;;
12593;SDS011;6362;50.208;9.182;2022-08-19T09:00:12;12.20;;;8.05;;
12593;SDS011;6362;50.208;9.182;2022-08-19T09:02:43;14.18;;;7.80;;
12593;SDS011;6362;50.208;9.182;2022-08-19T09:05:10;9.80;;;6.95;;
12593;SDS011;6362;50.208;9.182;2022-08-19T09:10:29;13.40;;;8.15;;
12593;SDS011;6362;50.208;9.182;2022-08-19T09:12:53;9.95;;;6.50;;
12593;SDS011;6362;50.208;9.182;2022-08-19T09:15:40;9.43;;;6.40;;
12593;SDS011;6362;50.208;9.182;2022-08-19T09:18:10;10.63;;;5.95;;
12593;SDS011;6362;50.208;9.182;2022-08-19T09:20:36;8.02;;;6.30;;
12593;SDS011;6362;50.208;9.182;2022-08-19T09:23:02;7.70;;;5.53;;
12593;SDS011;6362;50.208;9.182;2022-08-19T09:25:28;10.07;;;5.13;;
12593;SDS011;6362;50.208;9.182;2022-08-19T09:27:55;7.00;;;5.63;;
12593;SDS011;6362;50.208;9.182;2022-08-19T09:30:23;7.95;;;5.22;;
12593;SDS011;6362;50.208;9.182;2022-08-19T09:32:50;8.93;;;5.10;;
12593;SDS011;6362;50.208;9.182;2022-08-19T09:35:18;8.70;;;5.10;;
12593;SDS011;6362;50.208;9.182;2022-08-19T09:37:44;8.20;;;5.43;;
12593;SDS011;6362;50.208;9.182;2022-08-19T09:40:10;8.75;;;5.15;;
12593;SDS011;6362;50.208;9.182;2022-08-19T09:42:37;8.02;;;5.10;;
12593;SDS011;6362;50.208;9.182;2022-08-19T09:45:03;6.80;;;4.38;;
12593;SDS011;6362;50.208;9.182;2022-08-19T09:47:29;8.63;;;3.88;;
12593;SDS011;6362;50.208;9.182;2022-08-19T09:49:54;9.02;;;3.90;;
12593;SDS011;6362;50.208;9.182;2022-08-19T09:52:20;8.07;;;4.90;;
12593;SDS011;6362;50.208;9.182;2022-08-19T09:54:45;6.03;;;3.83;;
12593;SDS011;6362;50.208;9.182;2022-08-19T09:57:11;5.70;;;3.70;;
12593;SDS011;6362;50.208;9.182;2022-08-19T09:59:36;9.98;;;4.18;;
12593;SDS011;6362;50.208;9.182;2022-08-19T10:02:03;4.35;;;3.08;;
12593;SDS011;6362;50.208;9.182;2022-08-19T10:04:29;5.40;;;3.33;;
12593;SDS011;6362;50.208;9.182;2022-08-19T10:07:13;5.55;;;3.17;;
12593;SDS011;6362;50.208;9.182;2022-08-19T10:09:39;5.05;;;2.50;;
12593;SDS011;6362;50.208;9.182;2022-08-19T10:12:06;3.80;;;2.67;;
12593;SDS011;6362;50.208;9.182;2022-08-19T10:14:33;4.07;;;2.35;;
12593;SDS011;6362;50.208;9.182;2022-08-19T10:16:58;4.45;;;2.50;;
12593;SDS011;6362;50.208;9.182;2022-08-19T10:19:25;6.03;;;2.80;;
12593;SDS011;6362;50.208;9.182;2022-08-19T10:21:53;6.18;;;3.00;;
12593;SDS011;6362;50.208;9.182;2022-08-19T10:24:19;4.45;;;2.22;;
12593;SDS011;6362;50.208;9.182;2022-08-19T10:26:45;4.82;;;2.08;;
12593;SDS011;6362;50.208;9.182;2022-08-19T10:29:13;5.85;;;2.20;;
12593;SDS011;6362;50.208;9.182;2022-08-19T10:31:41;5.40;;;2.58;;
12593;SDS011;6362;50.208;9.182;2022-08-19T10:34:06;4.95;;;2.00;;
12593;SDS011;6362;50.208;9.182;2022-08-19T10:36:33;4.57;;;3.03;;
12593;SDS011;6362;50.208;9.182;2022-08-19T10:39:01;7.93;;;3.63;;
12593;SDS011;6362;50.208;9.182;2022-08-19T10:41:32;5.20;;;4.00;;
12593;SDS011;6362;50.208;9.182;2022-08-19T10:44:05;6.72;;;4.20;;
12593;SDS011;6362;50.208;9.182;2022-08-19T10:46:34;7.97;;;3.90;;
12593;SDS011;6362;50.208;9.182;2022-08-19T10:49:02;7.15;;;3.97;;
12593;SDS011;6362;50.208;9.182;2022-08-19T10:51:29;9.80;;;4.30;;
12593;SDS011;6362;50.208;9.182;2022-08-19T10:54:13;5.28;;;2.42;;
12593;SDS011;6362;50.208;9.182;2022-08-19T10:56:39;5.45;;;3.00;;
12593;SDS011;6362;50.208;9.182;2022-08-19T10:59:20;4.00;;;2.08;;
12593;SDS011;6362;50.208;9.182;2022-08-19T11:01:48;6.65;;;2.15;;
12593;SDS011;6362;50.208;9.182;2022-08-19T11:04:14;3.03;;;1.98;;
12593;SDS011;6362;50.208;9.182;2022-08-19T11:06:42;3.13;;;1.70;;
12593;SDS011;6362;50.208;9.182;2022-08-19T11:09:10;2.40;;;1.50;;
12593;SDS011;6362;50.208;9.182;2022-08-19T11:11:36;2.40;;;1.35;;
12593;SDS011;6362;50.208;9.182;2022-08-19T11:14:14;2.67;;;1.40;;
12593;SDS011;6362;50.208;9.182;2022-08-19T11:16:43;2.78;;;1.33;;
12593;SDS011;6362;50.208;9.182;2022-08-19T11:19:09;3.13;;;1.55;;
12593;SDS011;6362;50.208;9.182;2022-08-19T11:21:41;2.90;;;1.55;;
12593;SDS011;6362;50.208;9.182;2022-08-19T11:24:12;3.25;;;1.80;;
12593;SDS011;6362;50.208;9.182;2022-08-19T11:29:06;4.72;;;1.75;;
12593;SDS011;6362;50.208;9.182;2022-08-19T11:31:36;5.40;;;2.20;;
12593;SDS011;6362;50.208;9.182;2022-08-19T11:34:05;3.42;;;1.80;;
12593;SDS011;6362;50.208;9.182;2022-08-19T11:36:32;4.03;;;1.88;;
12593;SDS011;6362;50.208;9.182;2022-08-19T11:38:58;4.97;;;1.70;;
12593;SDS011;6362;50.208;9.182;2022-08-19T11:41:24;2.60;;;1.50;;
12593;SDS011;6362;50.208;9.182;2022-08-19T11:43:51;2.92;;;1.60;;
12593;SDS011;6362;50.208;9.182;2022-08-19T11:46:18;2.10;;;1.60;;
12593;SDS011;6362;50.208;9.182;2022-08-19T11:48:44;3.10;;;1.83;;
12593;SDS011;6362;50.208;9.182;2022-08-19T11:51:11;3.13;;;1.75;;
12593;SDS011;6362;50.208;9.182;2022-08-19T11:53:38;3.03;;;1.80;;
12593;SDS011;6362;50.208;9.182;2022-08-19T11:56:05;3.50;;;2.00;;
12593;SDS011;6362;50.208;9.182;2022-08-19T11:58:32;2.83;;;1.80;;
12593;SDS011;6362;50.208;9.182;2022-08-19T12:00:57;3.47;;;1.73;;
12593;SDS011;6362;50.208;9.182;2022-08-19T12:03:23;4.95;;;1.70;;
12593;SDS011;6362;50.208;9.182;2022-08-19T12:05:49;4.00;;;1.90;;
12593;SDS011;6362;50.208;9.182;2022-08-19T12:08:15;3.40;;;1.85;;
12593;SDS011;6362;50.208;9.182;2022-08-19T12:10:41;2.78;;;1.70;;
12593;SDS011;6362;50.208;9.182;2022-08-19T12:13:08;5.03;;;2.08;;
12593;SDS011;6362;50.208;9.182;2022-08-19T12:15:37;4.63;;;2.03;;
12593;SDS011;6362;50.208;9.182;2022-08-19T12:18:05;3.75;;;2.10;;
12593;SDS011;6362;50.208;9.182;2022-08-19T12:20:34;2.80;;;2.08;;
12593;SDS011;6362;50.208;9.182;2022-08-19T12:23:04;2.65;;;1.80;;
12593;SDS011;6362;50.208;9.182;2022-08-19T12:25:30;3.03;;;1.80;;
12593;SDS011;6362;50.208;9.182;2022-08-19T12:27:57;5.07;;;1.90;;
12593;SDS011;6362;50.208;9.182;2022-08-19T12:30:23;3.05;;;1.80;;
12593;SDS011;6362;50.208;9.182;2022-08-19T12:32:49;4.18;;;1.92;;
12593;SDS011;6362;50.208;9.182;2022-08-19T12:35:16;4.22;;;1.65;;
12593;SDS011;6362;50.208;9.182;2022-08-19T12:37:42;3.42;;;2.10;;
12593;SDS011;6362;50.208;9.182;2022-08-19T12:40:09;2.35;;;1.75;;
12593;SDS011;6362;50.208;9.182;2022-08-19T12:42:37;4.25;;;1.58;;
12593;SDS011;6362;50.208;9.182;2022-08-19T12:45:07;3.58;;;1.73;;
12593;SDS011;6362;50.208;9.182;2022-08-19T12:47:34;3.97;;;1.60;;
12593;SDS011;6362;50.208;9.182;2022-08-19T12:49:59;4.07;;;1.80;;
12593;SDS011;6362;50.208;9.182;2022-08-19T12:52:25;3.72;;;1.80;;
12593;SDS011;6362;50.208;9.182;2022-08-19T12:54:52;2.50;;;1.90;;
12593;SDS011;6362;50.208;9.182;2022-08-19T12:57:19;2.17;;;1.42;;
12593;SDS011;6362;50.208;9.182;2022-08-19T12:59:44;5.10;;;1.80;;
12593;SDS011;6362;50.208;9.182;2022-08-19T13:02:10;3.10;;;1.40;;
12593;SDS011;6362;50.208;9.182;2022-08-19T13:04:36;2.63;;;1.67;;
12593;SDS011;6362;50.208;9.182;2022-08-19T13:07:05;3.78;;;1.80;;
12593;SDS011;6362;50.208;9.182;2022-08-19T13:09:32;4.75;;;1.60;;
12593;SDS011;6362;50.208;9.182;2022-08-19T13:11:58;3.25;;;1.60;;
12593;SDS011;6362;50.208;9.182;2022-08-19T13:14:25;4.68;;;1.75;;
12593;SDS011;6362;50.208;9.182;2022-08-19T13:16:51;2.88;;;1.70;;
12593;SDS011;6362;50.208;9.182;2022-08-19T13:19:16;3.03;;;1.77;;
12593;SDS011;6362;50.208;9.182;2022-08-19T13:21:45;3.58;;;2.30;;
12593;SDS011;6362;50.208;9.182;2022-08-19T13:24:14;3.25;;;1.80;;
12593;SDS011;6362;50.208;9.182;2022-08-19T13:26:40;2.92;;;2.00;;
12593;SDS011;6362;50.208;9.182;2022-08-19T13:29:05;2.83;;;1.85;;
12593;SDS011;6362;50.208;9.182;2022-08-19T13:31:49;4.15;;;2.00;;
12593;SDS011;6362;50.208;9.182;2022-08-19T13:34:34;3.25;;;1.60;;
12593;SDS011;6362;50.208;9.182;2022-08-19T13:37:02;3.67;;;1.95;;
12593;SDS011;6362;50.208;9.182;2022-08-19T13:39:29;3.30;;;2.00;;
12593;SDS011;6362;50.208;9.182;2022-08-19T13:41:57;2.65;;;1.70;;
12593;SDS011;6362;50.208;9.182;2022-08-19T13:44:25;3.58;;;2.13;;
12593;SDS011;6362;50.208;9.182;2022-08-19T13:46:51;2.20;;;1.65;;
12593;SDS011;6362;50.208;9.182;2022-08-19T13:49:18;2.95;;;1.70;;
12593;SDS011;6362;50.208;9.182;2022-08-19T13:51:45;4.32;;;2.00;;
12593;SDS011;6362;50.208;9.182;2022-08-19T13:54:11;3.30;;;1.90;;
12593;SDS011;6362;50.208;9.182;2022-08-19T13:56:41;4.28;;;2.08;;
12593;SDS011;6362;50.208;9.182;2022-08-19T13:59:08;3.05;;;2.00;;
12593;SDS011;6362;50.208;9.182;2022-08-19T14:01:34;4.38;;;2.03;;
12593;SDS011;6362;50.208;9.182;2022-08-19T14:03:59;3.35;;;2.08;;
12593;SDS011;6362;50.208;9.182;2022-08-19T14:06:25;2.50;;;1.80;;
12593;SDS011;6362;50.208;9.182;2022-08-19T14:08:51;2.90;;;2.10;;
12593;SDS011;6362;50.208;9.182;2022-08-19T14:11:17;3.97;;;1.92;;
12593;SDS011;6362;50.208;9.182;2022-08-19T14:13:43;3.38;;;2.20;;
12593;SDS011;6362;50.208;9.182;2022-08-19T14:16:09;3.45;;;2.35;;
12593;SDS011;6362;50.208;9.182;2022-08-19T14:18:36;3.75;;;2.10;;
12593;SDS011;6362;50.208;9.182;2022-08-19T14:21:02;3.42;;;2.38;;
12593;SDS011;6362;50.208;9.182;2022-08-19T14:23:29;2.92;;;2.00;;
12593;SDS011;6362;50.208;9.182;2022-08-19T14:26:02;4.80;;;2.45;;
12593;SDS011;6362;50.208;9.182;2022-08-19T14:28:32;3.08;;;2.20;;
12593;SDS011;6362;50.208;9.182;2022-08-19T14:30:58;5.63;;;2.70;;
12593;SDS011;6362;50.208;9.182;2022-08-19T14:33:24;3.78;;;2.78;;
12593;SDS011;6362;50.208;9.182;2022-08-19T14:35:49;5.00;;;2.33;;
12593;SDS011;6362;50.208;9.182;2022-08-19T14:38:15;2.60;;;2.15;;
12593;SDS011;6362;50.208;9.182;2022-08-19T14:40:43;5.57;;;2.83;;
12593;SDS011;6362;50.208;9.182;2022-08-19T14:43:09;5.25;;;2.47;;
12593;SDS011;6362;50.208;9.182;2022-08-19T14:45:36;4.05;;;2.08;;
12593;SDS011;6362;50.208;9.182;2022-08-19T14:48:03;3.47;;;2.42;;
12593;SDS011;6362;50.208;9.182;2022-08-19T14:50:30;3.53;;;2.75;;
12593;SDS011;6362;50.208;9.182;2022-08-19T14:53:03;3.33;;;2.53;;
12593;SDS011;6362;50.208;9.182;2022-08-19T14:55:31;5.05;;;2.90;;
12593;SDS011;6362;50.208;9.182;2022-08-19T14:57:57;5.88;;;3.10;;
12593;SDS011;6362;50.208;9.182;2022-08-19T15:00:23;4.28;;;3.15;;
12593;SDS011;6362;50.208;9.182;2022-08-19T15:02:50;5.68;;;2.53;;